Time;durP1;ratioP1;P1;durP2;ratioP2;P2;SDS_P1;SDS_P2;PMS_P1;PMS_P2;Temp;Humidity;BMP_temperature;BMP_pressure;BME280_temperature;BME280_humidity;BME280_pressure;Samples;Min_cycle;Max_cycle;Signal;HPM_P1;HPM_P2
2023/08/29 00:00:56;;;;;;;7.30;6.53;;;15.40;99.90;;;;;;5048286;28;20655;-78
2023/08/29 00:03:27;;;;;;;8.82;6.72;;;15.60;99.90;;;;;;5048786;28;20230;-78
2023/08/29 00:06:01;;;;;;;6.65;5.95;;;15.60;99.90;;;;;;5035896;28;20194;-78
2023/08/29 00:08:28;;;;;;;6.82;6.05;;;15.70;99.90;;;;;;5052170;28;20201;-78
2023/08/29 00:10:58;;;;;;;6.22;5.63;;;15.70;99.90;;;;;;5060055;28;20202;-78
2023/08/29 00:13:26;;;;;;;6.18;5.57;;;15.70;99.90;;;;;;5052406;28;20226;-78
2023/08/29 00:15:53;;;;;;;6.25;5.65;;;15.80;99.90;;;;;;5068970;28;20201;-78
2023/08/29 00:18:21;;;;;;;6.28;5.70;;;15.70;99.90;;;;;;5054473;28;20193;-78
2023/08/29 00:20:49;;;;;;;6.60;5.95;;;15.70;99.90;;;;;;5072618;28;20213;-78
2023/08/29 00:23:16;;;;;;;6.47;5.88;;;15.80;99.90;;;;;;5051957;28;20198;-78
2023/08/29 00:25:44;;;;;;;7.25;6.55;;;15.70;99.90;;;;;;5053764;28;20532;-78
2023/08/29 00:28:12;;;;;;;6.95;6.35;;;15.60;99.90;;;;;;5055824;28;20210;-78
2023/08/29 00:30:40;;;;;;;6.85;6.25;;;15.60;99.90;;;;;;5050855;28;20206;-78
2023/08/29 00:33:09;;;;;;;7.40;6.70;;;15.70;99.90;;;;;;5051393;28;20210;-78
2023/08/29 00:35:37;;;;;;;8.13;7.35;;;15.50;99.90;;;;;;5051274;28;20194;-78
2023/08/29 00:38:05;;;;;;;8.60;6.38;;;15.50;99.90;;;;;;5049295;28;20202;-78
2023/08/29 00:40:32;;;;;;;6.95;6.25;;;15.50;99.90;;;;;;5055330;28;20764;-78
2023/08/29 00:43:00;;;;;;;6.75;6.18;;;15.60;99.90;;;;;;5047576;28;20197;-78
2023/08/29 00:45:32;;;;;;;7.43;6.72;;;15.50;99.90;;;;;;5047189;28;20201;-78
2023/08/29 00:48:01;;;;;;;9.75;7.57;;;15.50;99.90;;;;;;5054252;28;20201;-78
2023/08/29 00:50:29;;;;;;;7.68;6.97;;;15.50;99.90;;;;;;5052324;28;20796;-78
2023/08/29 00:52:58;;;;;;;7.93;6.82;;;15.60;99.90;;;;;;5069603;28;20205;-78
2023/08/29 00:55:27;;;;;;;7.00;6.30;;;15.70;99.90;;;;;;5057526;28;20198;-78
2023/08/29 00:57:56;;;;;;;6.82;6.22;;;15.70;99.90;;;;;;5074957;28;20208;-78
2023/08/29 01:00:24;;;;;;;7.63;6.93;;;15.60;99.90;;;;;;5048001;28;20209;-78
2023/08/29 01:02:53;;;;;;;7.82;7.15;;;15.50;99.90;;;;;;5052444;28;20566;-78
2023/08/29 01:05:21;;;;;;;8.25;7.45;;;15.40;99.90;;;;;;5055741;28;20681;-78
2023/08/29 01:07:49;;;;;;;7.90;7.05;;;15.30;99.90;;;;;;5041230;28;20202;-78
2023/08/29 01:10:17;;;;;;;7.28;6.55;;;15.30;99.90;;;;;;5062906;28;20575;-78
2023/08/29 01:12:55;;;;;;;7.55;6.80;;;15.30;99.90;;;;;;5073073;28;20205;-78
2023/08/29 01:15:26;;;;;;;7.13;6.43;;;15.30;99.90;;;;;;5053833;28;20228;-78
2023/08/29 01:18:02;;;;;;;7.03;6.40;;;15.30;99.90;;;;;;5055700;28;20549;-78
2023/08/29 01:20:31;;;;;;;7.22;6.53;;;15.20;99.90;;;;;;5074920;28;20195;-78
2023/08/29 01:23:08;;;;;;;8.38;7.68;;;15.30;99.90;;;;;;5052613;28;20205;-78
2023/08/29 01:25:40;;;;;;;8.00;7.30;;;15.10;99.90;;;;;;5042926;28;20208;-78
2023/08/29 01:28:10;;;;;;;8.10;7.40;;;14.90;99.90;;;;;;5049485;28;20217;-78
2023/08/29 01:30:39;;;;;;;8.93;8.13;;;14.90;99.90;;;;;;5053829;28;20202;-78
2023/08/29 01:33:07;;;;;;;9.23;7.85;;;14.90;99.90;;;;;;5052962;28;20210;-79
2023/08/29 01:35:35;;;;;;;9.52;8.13;;;14.90;99.90;;;;;;5058933;28;20196;-78
2023/08/29 01:38:02;;;;;;;8.57;7.78;;;14.80;99.90;;;;;;5051463;28;20198;-78
2023/08/29 01:40:30;;;;;;;8.82;7.57;;;14.90;99.90;;;;;;5048687;28;20216;-78
2023/08/29 01:42:58;;;;;;;10.68;8.45;;;14.70;99.90;;;;;;5054724;28;20193;-78
2023/08/29 01:45:27;;;;;;;8.52;7.72;;;14.70;99.90;;;;;;5054387;28;20217;-78
2023/08/29 01:47:54;;;;;;;8.20;7.43;;;14.80;99.90;;;;;;5059402;28;20194;-78
2023/08/29 01:50:22;;;;;;;8.98;6.93;;;14.80;99.90;;;;;;5047459;28;20199;-79
2023/08/29 01:52:50;;;;;;;7.93;7.22;;;14.80;99.90;;;;;;5058456;28;20219;-78
2023/08/29 01:55:18;;;;;;;8.70;7.90;;;14.90;99.90;;;;;;5048481;28;20218;-78
2023/08/29 01:57:47;;;;;;;8.65;6.55;;;15.00;99.90;;;;;;5048882;28;20198;-78
2023/08/29 02:00:16;;;;;;;8.85;7.95;;;14.90;99.90;;;;;;5050254;28;20205;-78
2023/08/29 02:02:45;;;;;;;8.82;8.02;;;14.90;99.90;;;;;;5074752;28;20194;-78
2023/08/29 02:05:12;;;;;;;8.27;7.40;;;14.80;99.90;;;;;;5064663;28;20209;-78
2023/08/29 02:07:40;;;;;;;8.10;6.97;;;14.90;99.90;;;;;;5048839;28;20205;-78
2023/08/29 02:10:09;;;;;;;8.00;7.15;;;14.90;99.90;;;;;;5047961;28;20563;-78
2023/08/29 02:12:36;;;;;;;8.55;7.57;;;15.00;99.90;;;;;;5048384;28;20586;-78
2023/08/29 02:15:05;;;;;;;8.88;8.07;;;15.00;99.90;;;;;;5047301;28;20568;-78
2023/08/29 02:17:33;;;;;;;8.20;7.43;;;14.90;99.90;;;;;;5045320;28;20190;-78
2023/08/29 02:20:02;;;;;;;8.98;8.00;;;15.00;99.90;;;;;;5040752;28;20194;-78
2023/08/29 02:22:31;;;;;;;9.50;8.50;;;15.00;99.90;;;;;;5062171;28;20194;-78
2023/08/29 02:25:00;;;;;;;10.45;9.38;;;14.80;99.90;;;;;;5039853;28;20224;-78
2023/08/29 02:27:28;;;;;;;8.88;8.07;;;15.00;99.90;;;;;;5045534;28;20217;-78
2023/08/29 02:29:56;;;;;;;8.10;7.30;;;14.90;99.90;;;;;;5052657;28;20193;-78
2023/08/29 02:32:24;;;;;;;8.32;7.47;;;15.00;99.90;;;;;;5050389;28;20194;-78
2023/08/29 02:34:52;;;;;;;7.82;7.13;;;15.00;99.90;;;;;;5054186;28;20226;-78
2023/08/29 02:37:20;;;;;;;9.40;8.50;;;14.90;99.90;;;;;;5054662;28;20607;-78
2023/08/29 02:39:48;;;;;;;8.48;7.68;;;14.90;99.90;;;;;;5046323;28;20199;-78
2023/08/29 02:42:15;;;;;;;8.35;6.38;;;14.90;99.90;;;;;;5046842;28;20202;-78
2023/08/29 02:44:43;;;;;;;8.95;7.82;;;14.80;99.90;;;;;;5042677;28;20217;-78
2023/08/29 02:47:10;;;;;;;9.70;8.02;;;14.70;99.90;;;;;;5047152;28;20561;-78
2023/08/29 02:49:38;;;;;;;8.65;7.45;;;14.80;99.90;;;;;;5047123;28;20209;-78
2023/08/29 02:52:06;;;;;;;8.30;7.50;;;14.90;99.90;;;;;;5068477;28;20190;-78
2023/08/29 02:54:35;;;;;;;9.32;7.63;;;14.80;99.90;;;;;;5037817;28;20234;-78
2023/08/29 02:57:02;;;;;;;8.60;7.72;;;14.70;99.90;;;;;;5047459;28;20205;-78
2023/08/29 02:59:30;;;;;;;9.20;8.07;;;14.70;99.90;;;;;;5049135;28;20206;-79
2023/08/29 03:01:57;;;;;;;9.63;8.45;;;14.50;99.90;;;;;;5049293;28;20190;-78
2023/08/29 03:04:24;;;;;;;9.13;8.23;;;14.40;99.90;;;;;;5058997;28;20215;-78
2023/08/29 03:06:52;;;;;;;8.60;7.70;;;14.30;99.90;;;;;;5056181;28;20533;-78
2023/08/29 03:09:20;;;;;;;8.20;7.50;;;14.50;99.90;;;;;;5055877;28;20205;-78
2023/08/29 03:11:49;;;;;;;7.72;6.90;;;14.50;99.90;;;;;;5063880;28;20205;-78
2023/08/29 03:14:16;;;;;;;9.27;8.38;;;14.20;99.90;;;;;;5052647;28;20583;-78
2023/08/29 03:16:44;;;;;;;9.52;8.63;;;14.40;99.90;;;;;;5056764;28;20205;-78
2023/08/29 03:19:11;;;;;;;9.00;8.15;;;14.30;99.90;;;;;;5057123;28;20204;-78
2023/08/29 03:21:39;;;;;;;11.45;9.40;;;14.40;99.90;;;;;;5050043;28;20203;-78
2023/08/29 03:24:07;;;;;;;10.38;8.57;;;14.40;99.90;;;;;;5050971;28;20217;-78
2023/08/29 03:26:34;;;;;;;10.30;9.30;;;14.50;99.90;;;;;;5046408;28;20204;-78
2023/08/29 03:29:03;;;;;;;10.60;9.07;;;14.30;99.90;;;;;;5054392;28;20594;-79
2023/08/29 03:31:31;;;;;;;9.88;8.93;;;14.30;99.90;;;;;;5055994;28;20208;-79
2023/08/29 03:33:58;;;;;;;9.10;8.20;;;14.40;99.90;;;;;;5051052;28;20214;-79
2023/08/29 03:36:26;;;;;;;10.15;9.15;;;14.40;99.90;;;;;;5055217;28;20205;-79
2023/08/29 03:38:53;;;;;;;10.00;8.95;;;14.40;99.90;;;;;;5044567;28;20199;-78
2023/08/29 03:41:20;;;;;;;11.90;9.63;;;14.30;99.90;;;;;;5045213;28;20198;-78
2023/08/29 03:43:51;;;;;;;10.80;9.80;;;14.40;99.90;;;;;;5051513;28;20212;-79
2023/08/29 03:46:21;;;;;;;8.48;7.68;;;14.50;99.90;;;;;;5057663;28;20196;-79
2023/08/29 03:48:48;;;;;;;10.13;8.25;;;14.50;99.90;;;;;;5057658;28;20198;-78
2023/08/29 03:51:17;;;;;;;9.15;8.35;;;14.60;99.90;;;;;;5069952;28;20202;-78
2023/08/29 03:53:44;;;;;;;9.02;8.23;;;14.70;99.90;;;;;;5049763;28;20215;-78
2023/08/29 03:56:12;;;;;;;8.88;8.07;;;14.70;99.90;;;;;;5055451;28;20668;-78
2023/08/29 03:58:40;;;;;;;10.45;9.30;;;14.70;99.90;;;;;;5053728;28;20698;-78
2023/08/29 04:01:08;;;;;;;12.05;9.50;;;14.50;99.90;;;;;;5052152;28;20198;-79
2023/08/29 04:03:37;;;;;;;11.20;10.18;;;14.50;99.90;;;;;;5051269;28;20671;-79
2023/08/29 04:06:05;;;;;;;11.18;10.15;;;14.40;99.90;;;;;;5064156;28;20240;-79
2023/08/29 04:08:32;;;;;;;10.23;8.80;;;14.30;99.90;;;;;;5056448;28;20197;-79
2023/08/29 04:11:03;;;;;;;10.32;8.50;;;14.30;99.90;;;;;;5066071;28;20181;-80
2023/08/29 04:13:31;;;;;;;11.07;10.07;;;14.20;99.90;;;;;;5052339;28;20228;-79
2023/08/29 04:16:02;;;;;;;10.40;8.75;;;14.10;99.90;;;;;;5045820;28;20218;-79
2023/08/29 04:18:30;;;;;;;11.20;9.98;;;14.20;99.90;;;;;;5049201;28;20213;-79
2023/08/29 04:21:00;;;;;;;10.95;9.63;;;14.30;99.90;;;;;;5058306;28;20201;-79
2023/08/29 04:23:39;;;;;;;10.10;9.15;;;14.20;99.90;;;;;;5067481;28;20229;-79
2023/08/29 04:26:06;;;;;;;10.57;8.65;;;14.30;99.90;;;;;;5055644;28;20204;-79
2023/08/29 04:28:34;;;;;;;10.30;9.30;;;14.30;99.90;;;;;;5050514;28;20217;-79
2023/08/29 04:31:08;;;;;;;10.07;9.18;;;14.30;99.90;;;;;;5052563;28;20207;-79
2023/08/29 04:33:36;;;;;;;9.20;8.25;;;14.40;99.90;;;;;;5037667;28;20218;-79
2023/08/29 04:36:05;;;;;;;11.25;10.15;;;14.90;99.90;;;;;;5059334;28;20198;-79
2023/08/29 04:38:33;;;;;;;9.98;9.07;;;14.80;99.90;;;;;;5055365;28;20209;-81
2023/08/29 04:41:00;;;;;;;10.43;9.32;;;14.60;99.90;;;;;;5054712;28;20271;-81
2023/08/29 04:43:28;;;;;;;10.60;9.52;;;14.60;99.90;;;;;;5071649;28;20221;-80
2023/08/29 04:45:56;;;;;;;10.32;9.43;;;14.70;99.90;;;;;;5069139;28;20193;-81
2023/08/29 04:48:23;;;;;;;11.13;10.02;;;14.70;99.90;;;;;;5055888;28;20212;-80
2023/08/29 04:50:52;;;;;;;10.77;9.77;;;14.60;99.90;;;;;;5038494;28;20195;-81
2023/08/29 04:53:22;;;;;;;10.77;9.82;;;14.60;99.90;;;;;;5042745;28;20201;-80
2023/08/29 04:55:50;;;;;;;11.38;9.73;;;14.60;99.90;;;;;;5054169;28;20205;-81
2023/08/29 04:58:18;;;;;;;12.68;10.65;;;14.60;99.90;;;;;;5048851;28;20202;-81
2023/08/29 05:00:45;;;;;;;10.85;9.90;;;14.50;99.90;;;;;;5047664;28;20205;-81
2023/08/29 05:03:14;;;;;;;9.80;9.00;;;14.60;99.90;;;;;;5053710;28;20194;-80
2023/08/29 05:05:46;;;;;;;10.23;9.30;;;14.60;99.90;;;;;;5052574;28;20189;-81
2023/08/29 05:08:15;;;;;;;10.35;9.35;;;14.50;99.90;;;;;;5049763;28;20193;-81
2023/08/29 05:10:44;;;;;;;9.48;8.57;;;14.40;99.90;;;;;;5062246;28;20221;-80
2023/08/29 05:13:12;;;;;;;8.95;8.25;;;14.50;99.90;;;;;;5048979;28;20202;-81
2023/08/29 05:15:50;;;;;;;10.60;9.07;;;14.50;99.90;;;;;;5043411;28;20210;-80
2023/08/29 05:18:18;;;;;;;11.23;9.57;;;14.50;99.90;;;;;;5046776;28;20205;-81
2023/08/29 05:20:45;;;;;;;10.23;9.18;;;14.50;99.90;;;;;;5054789;28;20205;-80
2023/08/29 05:23:13;;;;;;;11.25;10.13;;;14.60;99.90;;;;;;5045552;28;20199;-80
2023/08/29 05:25:41;;;;;;;11.77;10.68;;;14.80;99.90;;;;;;5035875;28;20198;-81
2023/08/29 05:28:10;;;;;;;10.77;9.77;;;14.70;99.90;;;;;;5045585;28;20201;-80
2023/08/29 05:30:37;;;;;;;11.50;9.88;;;14.80;99.90;;;;;;5049050;28;20189;-81
2023/08/29 05:33:05;;;;;;;11.50;10.13;;;14.80;99.90;;;;;;5052727;28;20198;-80
2023/08/29 05:35:41;;;;;;;11.98;10.77;;;14.80;99.90;;;;;;5052333;28;20217;-80
2023/08/29 05:38:11;;;;;;;11.10;9.70;;;14.80;99.90;;;;;;5049671;28;20208;-80
2023/08/29 05:40:38;;;;;;;10.75;9.68;;;14.80;99.90;;;;;;5053399;28;20202;-80
2023/08/29 05:43:11;;;;;;;10.40;9.30;;;14.80;99.90;;;;;;5052918;28;20202;-80
2023/08/29 05:45:42;;;;;;;11.45;10.23;;;14.80;99.90;;;;;;5048099;28;20198;-79
2023/08/29 05:48:09;;;;;;;11.48;10.05;;;14.70;99.90;;;;;;5048289;28;20194;-80
2023/08/29 05:50:39;;;;;;;10.90;9.90;;;14.80;99.90;;;;;;5051307;28;20198;-80
2023/08/29 05:53:08;;;;;;;10.63;9.45;;;14.90;99.90;;;;;;5050720;28;20214;-80
2023/08/29 05:55:41;;;;;;;10.10;9.18;;;15.00;99.90;;;;;;5052944;28;20588;-80
2023/08/29 05:58:10;;;;;;;12.13;10.23;;;15.10;99.90;;;;;;5042644;28;20206;-80
2023/08/29 06:00:38;;;;;;;12.50;10.35;;;15.10;99.90;;;;;;5061963;28;20503;-79
2023/08/29 06:03:08;;;;;;;12.15;10.85;;;15.10;99.90;;;;;;5049959;28;20711;-79
2023/08/29 06:05:38;;;;;;;11.65;10.40;;;15.00;99.90;;;;;;5062565;28;20198;-80
2023/08/29 06:08:06;;;;;;;12.68;11.48;;;15.10;99.90;;;;;;5048577;28;20197;-79
2023/08/29 06:10:34;;;;;;;12.57;10.95;;;15.20;99.90;;;;;;5037062;28;20216;-80
2023/08/29 06:13:02;;;;;;;12.85;11.38;;;15.30;99.90;;;;;;5072598;28;20200;-81
2023/08/29 06:15:31;;;;;;;12.68;11.48;;;15.30;99.90;;;;;;5050494;28;20241;-80
2023/08/29 06:17:58;;;;;;;16.60;10.80;;;15.20;99.90;;;;;;5061446;28;20221;-80
2023/08/29 06:20:27;;;;;;;12.32;11.13;;;15.40;99.90;;;;;;5066017;28;20206;-80
2023/08/29 06:22:56;;;;;;;13.00;11.38;;;15.40;99.90;;;;;;5068894;28;20182;-80
2023/08/29 06:25:24;;;;;;;16.92;11.98;;;15.60;99.90;;;;;;5049058;28;20683;-80
2023/08/29 06:27:52;;;;;;;14.10;10.60;;;15.70;99.90;;;;;;5047848;28;20199;-80
2023/08/29 06:30:20;;;;;;;12.77;10.98;;;15.70;99.90;;;;;;5048227;28;20209;-80
2023/08/29 06:32:50;;;;;;;13.20;11.85;;;15.80;99.90;;;;;;5057783;28;20202;-80
2023/08/29 06:35:18;;;;;;;12.93;11.40;;;15.70;99.90;;;;;;5052707;28;20214;-80
2023/08/29 06:37:45;;;;;;;12.70;11.48;;;15.80;99.90;;;;;;5058888;28;20220;-80
2023/08/29 06:40:13;;;;;;;12.48;11.13;;;15.90;99.90;;;;;;5057879;28;20204;-80
2023/08/29 06:42:52;;;;;;;16.88;12.10;;;15.90;99.90;;;;;;5059021;28;20674;-80
2023/08/29 06:45:20;;;;;;;13.50;12.15;;;16.00;99.90;;;;;;5053302;28;20206;-80
2023/08/29 06:47:49;;;;;;;12.32;11.05;;;16.00;99.90;;;;;;5054695;28;20199;-80
2023/08/29 06:50:17;;;;;;;12.90;11.13;;;16.00;99.90;;;;;;5045533;28;20194;-80
2023/08/29 06:52:44;;;;;;;13.02;11.70;;;16.00;99.90;;;;;;5076232;28;20562;-80
2023/08/29 06:55:13;;;;;;;13.48;11.35;;;15.90;99.90;;;;;;5057548;28;20228;-80
2023/08/29 06:57:40;;;;;;;13.20;11.90;;;16.00;99.90;;;;;;5062347;28;20202;-80
2023/08/29 07:00:10;;;;;;;12.77;11.25;;;15.90;99.90;;;;;;5068670;28;20197;-80
2023/08/29 07:02:38;;;;;;;11.43;10.32;;;16.00;99.90;;;;;;5070895;28;20560;-80
2023/08/29 07:05:07;;;;;;;13.63;11.32;;;16.10;99.90;;;;;;5074269;28;20224;-80
2023/08/29 07:07:35;;;;;;;13.23;11.48;;;16.20;99.90;;;;;;5054140;28;20672;-80
2023/08/29 07:10:04;;;;;;;14.00;11.43;;;16.30;99.90;;;;;;5055254;28;20210;-80
2023/08/29 07:12:31;;;;;;;12.13;10.93;;;16.20;99.90;;;;;;5049168;28;20715;-80
2023/08/29 07:15:00;;;;;;;15.27;11.57;;;16.20;99.90;;;;;;5067117;28;20218;-80
2023/08/29 07:17:29;;;;;;;13.48;11.73;;;16.10;99.90;;;;;;5053791;28;20210;-80
2023/08/29 07:19:57;;;;;;;13.23;10.85;;;16.30;99.90;;;;;;5075041;28;20198;-80
2023/08/29 07:22:30;;;;;;;12.27;9.10;;;16.60;99.90;;;;;;5056127;28;20197;-80
2023/08/29 07:24:57;;;;;;;17.35;12.35;;;17.00;99.90;;;;;;5052144;28;20214;-79
2023/08/29 07:27:25;;;;;;;16.25;12.40;;;17.30;1.00;;;;;;5058678;28;20671;-79
2023/08/29 07:29:52;;;;;;;14.57;10.70;;;17.00;64.50;;;;;;5046052;28;20217;-79
2023/08/29 07:32:20;;;;;;;13.20;11.35;;;16.90;1.00;;;;;;5069852;28;20185;-79
2023/08/29 07:34:47;;;;;;;14.52;11.45;;;16.80;99.90;;;;;;5049707;28;20229;-78
2023/08/29 07:37:14;;;;;;;12.05;10.80;;;16.60;1.00;;;;;;5048182;28;20214;-79
2023/08/29 07:39:44;;;;;;;15.18;12.63;;;16.70;1.00;;;;;;5055426;28;20193;-79
2023/08/29 07:42:18;;;;;;;18.65;13.30;;;16.70;99.90;;;;;;5053335;28;20194;-80
2023/08/29 07:44:46;;;;;;;13.07;11.75;;;16.80;93.00;;;;;;5056142;28;20233;-80
2023/08/29 07:47:13;;;;;;;13.43;11.27;;;16.70;79.00;;;;;;5041081;28;20197;-80
2023/08/29 07:49:40;;;;;;;13.43;11.98;;;16.80;1.00;;;;;;5035304;28;20202;-80
2023/08/29 07:52:08;;;;;;;17.52;11.60;;;16.70;13.90;;;;;;5040437;28;20202;-81
2023/08/29 07:54:35;;;;;;;11.20;10.05;;;16.90;53.30;;;;;;5081314;28;20229;-81
2023/08/29 07:57:04;;;;;;;12.40;9.45;;;17.20;1.00;;;;;;5077213;28;20213;-82
2023/08/29 07:59:32;;;;;;;14.02;10.15;;;17.40;99.90;;;;;;5076884;28;20546;-82
2023/08/29 08:01:59;;;;;;;12.80;11.50;;;17.70;99.90;;;;;;5056220;28;20534;-82
2023/08/29 08:04:27;;;;;;;12.52;11.23;;;17.50;99.90;;;;;;5061663;28;20221;-81
2023/08/29 08:06:54;;;;;;;13.45;10.07;;;17.10;1.00;;;;;;5055822;28;20205;-82
2023/08/29 08:09:22;;;;;;;9.98;8.50;;;17.30;1.00;;;;;;5058337;28;20587;-81
2023/08/29 08:11:49;;;;;;;10.15;8.40;;;17.90;1.00;;;;;;5050415;28;20202;-81
2023/08/29 08:14:18;;;;;;;11.95;10.73;;;18.10;1.00;;;;;;5063155;28;20249;-81
2023/08/29 08:16:46;;;;;;;11.57;9.27;;;18.20;99.90;;;;;;5061430;28;20216;-81
2023/08/29 08:19:13;;;;;;;9.85;8.80;;;18.00;99.90;;;;;;5038421;28;20533;-81
2023/08/29 08:21:41;;;;;;;13.48;11.35;;;18.10;99.90;;;;;;5049795;28;20577;-82
2023/08/29 08:24:08;;;;;;;13.48;11.68;;;18.00;1.00;;;;;;5050456;28;20679;-83
2023/08/29 08:26:36;;;;;;;13.35;11.82;;;17.80;99.90;;;;;;5062499;28;20649;-83
2023/08/29 08:29:04;;;;;;;13.15;11.20;;;17.60;1.00;;;;;;5041063;28;20206;-83
2023/08/29 08:31:33;;;;;;;12.73;11.38;;;17.60;97.40;;;;;;5048779;28;20219;-82
2023/08/29 08:34:01;;;;;;;12.40;11.25;;;17.60;1.00;;;;;;5055934;28;20218;-82
2023/08/29 08:36:30;;;;;;;13.10;11.38;;;17.60;1.00;;;;;;5059268;28;20222;-82
2023/08/29 08:38:58;;;;;;;13.13;11.23;;;17.60;1.00;;;;;;5062446;28;20195;-82
2023/08/29 08:41:25;;;;;;;14.70;11.43;;;17.70;1.00;;;;;;5051231;28;20194;-83
2023/08/29 08:43:56;;;;;;;12.23;10.98;;;17.60;99.90;;;;;;5045664;28;20321;-82
2023/08/29 08:46:23;;;;;;;12.23;11.02;;;17.80;1.00;;;;;;5066707;28;20185;-83
2023/08/29 08:48:53;;;;;;;12.52;11.13;;;17.80;1.00;;;;;;5058929;28;20196;-82
2023/08/29 08:51:22;;;;;;;12.73;11.35;;;17.70;99.90;;;;;;5043450;28;20198;-82
2023/08/29 08:53:50;;;;;;;14.13;11.98;;;17.70;1.00;;;;;;5044529;28;20218;-82
2023/08/29 08:56:18;;;;;;;11.93;10.73;;;17.90;1.00;;;;;;5047833;28;20221;-82
2023/08/29 08:58:46;;;;;;;12.60;11.20;;;18.10;99.90;;;;;;5082588;28;20196;-82
2023/08/29 09:01:13;;;;;;;14.00;12.57;;;18.30;99.90;;;;;;5064516;28;20208;-82
2023/08/29 09:03:42;;;;;;;13.23;11.98;;;17.90;1.00;;;;;;5057501;28;20218;-82
2023/08/29 09:06:15;;;;;;;13.98;11.82;;;17.80;1.00;;;;;;5052599;28;20194;-82
2023/08/29 09:08:42;;;;;;;13.68;11.88;;;17.70;99.90;;;;;;5062368;28;20213;-82
2023/08/29 09:11:10;;;;;;;12.35;11.05;;;17.70;1.00;;;;;;5043509;28;20198;-82
2023/08/29 09:13:46;;;;;;;15.30;11.68;;;17.70;99.90;;;;;;5044689;28;20225;-82
2023/08/29 09:16:14;;;;;;;12.45;11.10;;;18.00;1.00;;;;;;5045697;28;20214;-82
2023/08/29 09:18:44;;;;;;;12.27;11.15;;;18.20;1.00;;;;;;5078637;28;20201;-82
2023/08/29 09:21:21;;;;;;;12.10;9.88;;;18.20;99.90;;;;;;5051219;28;20561;-82
2023/08/29 09:23:50;;;;;;;9.93;8.93;;;18.30;1.00;;;;;;5060223;28;20225;-82
2023/08/29 09:26:18;;;;;;;11.05;9.95;;;18.30;99.90;;;;;;5043905;28;20202;-82
2023/08/29 09:28:46;;;;;;;11.60;10.38;;;18.40;99.90;;;;;;5040500;28;20215;-82
2023/08/29 09:31:15;;;;;;;10.15;9.15;;;18.60;99.90;;;;;;5051826;28;20202;-82
2023/08/29 09:33:42;;;;;;;10.88;8.98;;;18.70;99.90;;;;;;5056529;28;20222;-83
2023/08/29 09:36:12;;;;;;;9.27;8.30;;;18.70;1.00;;;;;;5049127;28;20194;-82
2023/08/29 09:38:42;;;;;;;9.68;8.52;;;18.70;90.00;;;;;;5068683;28;20194;-82
2023/08/29 09:41:13;;;;;;;9.40;8.50;;;18.80;1.00;;;;;;5047572;28;20199;-82
2023/08/29 09:43:47;;;;;;;9.48;8.43;;;18.80;1.00;;;;;;5049420;28;20680;-83
2023/08/29 09:46:31;;;;;;;10.27;8.32;;;18.90;99.90;;;;;;5049965;28;20198;-83
2023/08/29 09:48:59;;;;;;;9.93;8.93;;;18.90;99.90;;;;;;5050604;28;20686;-82
2023/08/29 09:52:19;;;;;;;8.27;7.47;;;18.80;99.90;;;;;;5049716;28;20197;-83
2023/08/29 09:54:50;;;;;;;7.82;7.03;;;18.90;99.90;;;;;;5060733;28;20225;-82
2023/08/29 09:57:19;;;;;;;9.25;8.10;;;18.90;1.00;;;;;;5057367;28;20202;-83
2023/08/29 09:59:47;;;;;;;9.13;8.23;;;18.90;1.00;;;;;;5049171;28;20193;-83
2023/08/29 10:02:18;;;;;;;8.38;7.47;;;18.80;1.00;;;;;;5052867;28;20197;-84
2023/08/29 10:05:15;;;;;;;9.25;7.63;;;18.80;1.00;;;;;;5070717;28;20220;-83
2023/08/29 10:07:44;;;;;;;9.05;8.18;;;18.80;1.00;;;;;;5040465;28;20672;-83
2023/08/29 10:10:13;;;;;;;8.90;8.00;;;18.90;1.00;;;;;;5046654;28;20660;-83
2023/08/29 10:12:41;;;;;;;15.68;10.20;;;19.10;1.00;;;;;;5052505;28;20208;-83
2023/08/29 10:15:10;;;;;;;24.65;12.82;;;19.20;1.00;;;;;;5051728;28;20221;-83
2023/08/29 10:17:38;;;;;;;32.08;13.27;;;19.30;1.00;;;;;;5054706;28;20217;-83
2023/08/29 10:20:09;;;;;;;16.20;9.27;;;19.20;99.90;;;;;;5054652;28;20205;-83
2023/08/29 10:22:38;;;;;;;10.48;7.93;;;19.30;99.90;;;;;;5053123;28;20201;-83
2023/08/29 10:25:07;;;;;;;9.75;7.20;;;19.60;99.90;;;;;;5049253;28;20229;-82
2023/08/29 10:27:36;;;;;;;7.55;6.10;;;19.70;88.60;;;;;;5067963;28;20193;-83
2023/08/29 10:30:05;;;;;;;7.15;6.30;;;19.70;1.00;;;;;;5049174;28;20201;-83
2023/08/29 10:32:34;;;;;;;6.15;5.65;;;19.80;8.70;;;;;;5049207;28;20218;-83
2023/08/29 10:35:03;;;;;;;7.15;5.95;;;19.90;1.00;;;;;;5053555;28;20236;-83
2023/08/29 10:37:31;;;;;;;6.60;6.00;;;20.00;1.00;;;;;;5049457;28;20222;-82
2023/08/29 10:40:10;;;;;;;9.07;6.60;;;20.00;1.00;;;;;;5063775;28;20264;-80
2023/08/29 10:42:54;;;;;;;7.70;6.40;;;20.30;1.00;;;;;;5070104;28;20217;-81
2023/08/29 10:45:43;;;;;;;10.43;6.10;;;20.30;1.00;;;;;;5064878;28;20597;-81
2023/08/29 10:48:19;;;;;;;5.15;3.92;;;20.10;1.00;;;;;;5047573;28;20201;-81
2023/08/29 10:50:48;;;;;;;8.27;5.45;;;20.10;1.00;;;;;;5062949;28;20200;-82
2023/08/29 10:53:19;;;;;;;5.85;4.30;;;20.10;99.90;;;;;;5056239;28;20208;-82
2023/08/29 10:56:03;;;;;;;4.97;3.72;;;19.80;99.90;;;;;;5052166;28;20209;-82
2023/08/29 10:58:36;;;;;;;5.13;3.95;;;19.90;99.90;;;;;;5054746;28;20222;-81
2023/08/29 11:01:04;;;;;;;5.25;3.60;;;19.70;99.90;;;;;;5048851;28;20191;-80
2023/08/29 11:03:40;;;;;;;3.70;3.40;;;19.90;99.90;;;;;;5041581;28;20243;-80
2023/08/29 11:06:08;;;;;;;2.80;2.60;;;20.00;99.90;;;;;;5050015;28;20209;-80
2023/08/29 11:08:35;;;;;;;4.05;2.63;;;20.30;99.90;;;;;;5048689;28;20208;-80
2023/08/29 11:11:17;;;;;;;2.92;2.63;;;20.30;28.10;;;;;;5042723;28;20198;-80
2023/08/29 11:14:03;;;;;;;3.00;2.80;;;20.40;1.00;;;;;;5066607;28;20232;-80
2023/08/29 11:16:34;;;;;;;3.85;2.70;;;20.20;1.00;;;;;;5052548;28;20209;-80
2023/08/29 11:19:11;;;;;;;3.50;2.50;;;20.40;1.00;;;;;;5042572;28;20656;-80
2023/08/29 11:21:38;;;;;;;4.03;2.78;;;20.50;1.00;;;;;;5057946;28;20583;-80
2023/08/29 11:24:11;;;;;;;3.72;3.38;;;20.70;1.00;;;;;;5057757;28;20220;-80
2023/08/29 11:26:40;;;;;;;3.05;2.85;;;20.40;1.00;;;;;;5072349;28;20201;-80
2023/08/29 11:29:09;;;;;;;2.80;2.33;;;20.70;1.00;;;;;;5070501;28;20194;-81
2023/08/29 11:31:40;;;;;;;4.13;2.70;;;21.10;1.00;;;;;;5052123;28;20199;-81
2023/08/29 11:34:13;;;;;;;3.33;2.95;;;21.20;1.00;;;;;;5043949;28;20219;-79
2023/08/29 11:36:42;;;;;;;4.78;3.38;;;21.10;1.00;;;;;;5055492;28;20201;-79
2023/08/29 11:39:09;;;;;;;4.68;3.35;;;21.00;1.00;;;;;;5068961;28;20206;-80
2023/08/29 11:42:08;;;;;;;2.38;2.25;;;21.20;1.00;;;;;;5054291;28;20212;-79
2023/08/29 11:44:37;;;;;;;4.45;4.05;;;21.30;1.00;;;;;;5054917;28;20222;-79
2023/08/29 11:47:04;;;;;;;5.72;2.95;;;21.10;1.00;;;;;;5056686;28;20197;-79
2023/08/29 11:49:32;;;;;;;3.15;2.85;;;21.30;1.00;;;;;;5055599;28;20197;-79
2023/08/29 11:51:59;;;;;;;2.92;2.65;;;21.50;1.00;;;;;;5052346;28;20206;-79
2023/08/29 11:54:41;;;;;;;2.75;2.55;;;21.50;1.00;;;;;;5066186;28;20224;-83
2023/08/29 11:57:10;;;;;;;4.00;2.30;;;21.30;1.00;;;;;;5049591;28;20247;-79
2023/08/29 11:59:40;;;;;;;2.70;2.00;;;21.50;1.00;;;;;;5066604;28;20190;-79
2023/08/29 12:02:10;;;;;;;3.03;2.58;;;21.60;1.00;;;;;;5036551;28;20648;-79
2023/08/29 12:04:41;;;;;;;3.53;2.53;;;21.60;1.00;;;;;;5035832;28;20214;-79
2023/08/29 12:07:09;;;;;;;2.88;1.98;;;21.30;1.00;;;;;;5035978;28;20209;-79
2023/08/29 12:09:38;;;;;;;4.53;1.95;;;20.90;1.00;;;;;;5070128;28;20185;-79
2023/08/29 12:12:07;;;;;;;2.88;1.30;;;20.90;1.00;;;;;;5075915;28;20204;-79
2023/08/29 12:14:57;;;;;;;2.20;1.70;;;21.00;1.00;;;;;;5068390;28;20225;-79
2023/08/29 12:17:36;;;;;;;5.07;2.00;;;20.80;1.00;;;;;;5054833;28;20556;-79
2023/08/29 12:20:39;;;;;;;2.58;1.60;;;20.80;1.00;;;;;;5071202;28;20288;-79
2023/08/29 12:23:06;;;;;;;2.15;1.13;;;21.00;1.00;;;;;;5046099;28;20197;-80
2023/08/29 12:25:34;;;;;;;2.50;1.50;;;21.00;1.00;;;;;;5050057;28;20201;-79
2023/08/29 12:28:02;;;;;;;1.40;1.30;;;21.00;1.00;;;;;;5063550;28;20197;-79
2023/08/29 12:30:30;;;;;;;2.15;1.27;;;20.90;1.00;;;;;;5054478;28;20197;-78
2023/08/29 12:33:05;;;;;;;1.27;1.10;;;21.20;1.00;;;;;;5064659;28;20190;-79
2023/08/29 12:35:33;;;;;;;1.75;1.30;;;21.40;1.00;;;;;;5060428;28;20308;-79
2023/08/29 12:38:00;;;;;;;1.02;0.93;;;21.40;1.00;;;;;;5059168;28;20205;-79
2023/08/29 12:40:27;;;;;;;1.55;1.13;;;21.90;1.00;;;;;;5074346;28;20204;-79
2023/08/29 12:42:56;;;;;;;2.05;0.95;;;22.00;1.00;;;;;;5054282;28;20202;-79
2023/08/29 12:45:23;;;;;;;1.33;1.23;;;22.20;1.00;;;;;;5060540;28;20236;-79
2023/08/29 12:47:52;;;;;;;1.70;1.13;;;22.30;1.00;;;;;;5051467;28;20208;-79
2023/08/29 12:50:20;;;;;;;1.30;0.80;;;22.60;1.00;;;;;;5048129;28;20191;-80
2023/08/29 12:52:47;;;;;;;1.20;1.10;;;22.90;1.00;;;;;;5036422;28;20194;-80
2023/08/29 12:55:14;;;;;;;2.53;1.17;;;22.90;1.00;;;;;;5077119;28;20217;-80